Williams Lake Airport
CYWL : now visible

Airfield :











YOU CAN JOIN US ON...

 
LOGIN :

Register | Disclaimer

   EN    FR    IT 

 









Legend :    VFR   Marginal VFR   IFR   Intensive IFR   Very Intensive IFR
Visi :
Ceiling :
>= 8 km
>= 3000ft
5 to 8 km
1000 to 3000 ft
1500m to 5 km
500 to 1000 ft
800 to 1500m
200 to 500 ft
< 800m
< 200 ft
Symbols :   Thunderstorms  Fog  Heavy snow  Heavy precipitations  Wind > 20 kt






- Airport Elevation : 3085 ft
- IATA code : YWL


CYWL - Williams Lake

CURRENT METAR :
  • 110500Z 12003KT 15SM OVC110 M04/M04 A2991 RMK AC8 SLP178

EXPIRED METARs :
  • 110400Z 14003KT 15SM OVC095 M04/M04 A2991 RMK AC8 SLP180
  • 110300Z 13006KT 15SM OVC080 M04/M04 A2991 RMK AC8 SLP180

TAF TAF CYWL
Valid from the 11 at 01:00 until the 11 at 13:00 UTC


110038Z 1101/1113 12005KT P6SM BKN100
FM110600 14005KT P6SM -SN OVC080
TEMPO 1106/1111 3SM -SN VV020
FM111100 14005KT P6SM BKN100 RMK NXT FCST BY 110700Z



MET'MAP, your aeronautical weather chart ! - Copyright ORBIFLY December 2007 - Disclaimer

ORBIFLY MET'MAP TEAM :

Programming & Development : Alexandra Zaïnal
Concept & original design : Baudouin d'Aumeries
Assistance for programming : Marc-Olivier Méhu
Technical & hardware support : Manuel Goepfert

Contact : metmap@orbifly.com




SOURCES & CREDITS :

   NOAA       Earth
Advisory